Time;durP1;ratioP1;P1;durP2;ratioP2;P2;SDS_P1;SDS_P2;PMS_P1;PMS_P2;Temp;Humidity;BMP_temperature;BMP_pressure;BME280_temperature;BME280_humidity;BME280_pressure;Samples;Min_cycle;Max_cycle;Signal;HPM_P1;HPM_P2
2022/08/18 00:00:38;;;;;;;5.32;1.77;;;;;;;37.60;28.56;100346.50;4967654;28;20047;-80
2022/08/18 00:03:10;;;;;;;15.77;2.33;;;;;;;37.57;29.62;100344.09;4976610;28;20063;-81
2022/08/18 00:05:39;;;;;;;8.77;2.00;;;;;;;37.53;29.77;100339.94;4970178;28;20102;-83
2022/08/18 00:08:08;;;;;;;11.65;2.03;;;;;;;37.43;29.57;100345.31;4976863;28;20050;-83
2022/08/18 00:10:41;;;;;;;10.57;2.00;;;;;;;37.36;29.74;100341.44;4980947;28;20050;-84
2022/08/18 00:13:16;;;;;;;9.93;2.03;;;;;;;37.26;30.09;100332.47;4654084;28;9259825;-82
2022/08/18 00:15:52;;;;;;;7.45;1.85;;;;;;;37.20;30.87;100341.13;4992769;28;20050;-86
2022/08/18 00:18:20;;;;;;;17.35;2.95;;;;;;;37.09;30.40;100348.34;4991871;28;20485;-86
2022/08/18 00:20:49;;;;;;;8.27;1.85;;;;;;;36.95;30.71;100337.91;4991536;28;20148;-84
2022/08/18 00:23:17;;;;;;;11.27;2.05;;;;;;;36.86;30.44;100341.41;4987928;28;20070;-85
2022/08/18 00:25:49;;;;;;;6.18;1.85;;;;;;;36.74;29.06;100345.16;4991638;28;20050;-82
2022/08/18 00:28:18;;;;;;;7.07;1.65;;;;;;;36.65;31.60;100341.41;4992213;28;20058;-85
2022/08/18 00:30:46;;;;;;;7.45;2.85;;;;;;;36.59;32.72;100342.81;4987806;28;20058;-84
2022/08/18 00:33:15;;;;;;;2.72;1.63;;;;;;;36.53;30.97;100345.16;4988660;28;20116;-84
2022/08/18 00:35:43;;;;;;;5.85;1.73;;;;;;;36.45;32.18;100330.50;4988086;28;20057;-78
2022/08/18 00:38:12;;;;;;;7.65;1.60;;;;;;;36.41;33.03;100329.06;4987812;28;20046;-84
2022/08/18 00:40:43;;;;;;;4.57;1.98;;;;;;;36.34;31.53;100337.81;4987453;28;20528;-79
2022/08/18 00:43:20;;;;;;;5.78;2.53;;;;;;;36.30;31.43;100334.50;4989395;28;20046;-84
2022/08/18 00:45:49;;;;;;;8.40;3.03;;;;;;;36.35;29.76;100334.97;4987188;28;20046;-82
2022/08/18 00:48:17;;;;;;;9.35;2.13;;;;;;;36.47;31.65;100338.47;4991961;28;20527;-80
2022/08/18 00:50:50;;;;;;;6.55;2.63;;;;;;;36.52;30.62;100335.38;4995165;28;20046;-80
2022/08/18 00:53:26;;;;;;;13.80;3.65;;;;;;;36.54;28.90;100338.75;4993249;28;20057;-79
2022/08/18 00:55:55;;;;;;;9.43;2.53;;;;;;;36.57;31.16;100333.13;4989978;28;20424;-84
2022/08/18 00:58:31;;;;;;;7.13;2.45;;;;;;;36.66;31.76;100345.84;4992667;28;20578;-82
2022/08/18 01:01:05;;;;;;;8.05;2.50;;;;;;;36.68;29.44;100344.72;4984518;28;20500;-81
2022/08/18 01:03:38;;;;;;;9.07;2.40;;;;;;;36.76;31.55;100348.56;4995994;28;20042;-87
2022/08/18 01:06:15;;;;;;;10.85;2.20;;;;;;;36.80;31.00;100350.03;4993202;28;20057;-86
2022/08/18 01:08:44;;;;;;;5.47;2.20;;;;;;;36.78;31.39;100338.50;4992317;28;20725;-83
2022/08/18 01:11:12;;;;;;;5.10;1.98;;;;;;;36.73;30.74;100343.47;4994120;28;20049;-81
2022/08/18 01:13:43;;;;;;;5.18;1.80;;;;;;;36.77;30.39;100345.75;4987120;28;20047;-85
2022/08/18 01:21:52;;;;;;;11.63;1.95;;;;;;;36.71;31.79;100340.03;4968400;28;20086;-87
2022/08/18 01:25:58;;;;;;;5.45;1.60;;;;;;;36.65;32.06;100330.63;4973261;28;20110;-86
2022/08/18 01:27:16;;;;;;;6.93;1.73;;;;;;;36.61;31.29;100323.81;4974356;28;20162;-87
2022/08/18 01:29:45;;;;;;;3.45;1.77;;;;;;;36.60;32.11;100322.09;4977666;28;20709;-88
2022/08/18 01:32:18;;;;;;;5.70;1.80;;;;;;;36.58;32.23;100324.03;4974002;28;20051;-85
2022/08/18 01:34:48;;;;;;;4.78;1.70;;;;;;;36.57;30.22;100325.88;4969059;28;20561;-83
2022/08/18 01:37:19;;;;;;;3.60;1.67;;;;;;;36.55;30.56;100332.41;4975209;28;20054;-85
2022/08/18 01:39:49;;;;;;;4.43;1.55;;;;;;;36.48;32.50;100324.84;4974183;28;20058;-87
2022/08/18 01:42:18;;;;;;;9.67;1.70;;;;;;;36.45;32.79;100319.72;4968295;28;20046;-80
2022/08/18 01:44:49;;;;;;;7.15;1.70;;;;;;;36.43;32.50;100321.69;4972157;28;20452;-82
2022/08/18 01:47:19;;;;;;;3.35;1.35;;;;;;;36.31;31.21;100308.41;4970428;28;20051;-83
2022/08/18 01:49:48;;;;;;;6.45;1.92;;;;;;;36.32;30.70;100318.22;4972444;28;20065;-80
2022/08/18 01:52:19;;;;;;;5.50;1.90;;;;;;;36.28;33.07;100325.69;4971117;28;20489;-85
2022/08/18 01:54:50;;;;;;;5.55;1.60;;;;;;;36.26;34.09;100338.44;4969140;28;20078;-79
2022/08/18 01:57:20;;;;;;;7.75;1.58;;;;;;;36.21;33.32;100337.97;4974982;28;20047;-86
2022/08/18 01:59:49;;;;;;;8.65;1.80;;;;;;;36.13;33.09;100333.25;4981615;28;20065;-82
2022/08/18 02:02:28;;;;;;;5.78;1.65;;;;;;;36.08;32.78;100328.22;4972217;28;20071;-86
2022/08/18 02:05:02;;;;;;;4.18;1.30;;;;;;;36.00;31.14;100335.25;4979411;28;20571;-82
2022/08/18 02:07:31;;;;;;;4.30;1.27;;;;;;;35.93;31.29;100334.91;4968617;28;20492;-86
2022/08/18 02:10:01;;;;;;;6.18;1.80;;;;;;;35.84;31.29;100333.81;4973882;28;20125;-83
2022/08/18 02:12:29;;;;;;;5.68;1.80;;;;;;;35.79;30.52;100335.22;4968428;28;20137;-81
2022/08/18 02:14:58;;;;;;;5.18;1.65;;;;;;;35.73;31.27;100333.00;4984068;28;20062;-83
2022/08/18 02:17:26;;;;;;;7.47;1.52;;;;;;;35.65;32.38;100337.19;4988890;28;20058;-87
2022/08/18 02:19:55;;;;;;;6.75;1.98;;;;;;;35.56;32.67;100332.56;4992906;28;20551;-83
2022/08/18 02:22:24;;;;;;;5.88;1.70;;;;;;;35.50;31.53;100335.72;4986782;28;20046;-82
2022/08/18 02:24:52;;;;;;;7.78;1.63;;;;;;;35.45;31.51;100329.88;4981100;28;20062;-82
2022/08/18 02:27:22;;;;;;;6.18;1.48;;;;;;;35.41;32.28;100333.81;4989030;28;20050;-85
2022/08/18 02:29:51;;;;;;;5.57;1.80;;;;;;;35.34;34.23;100322.69;4993668;28;20042;-81
2022/08/18 02:32:19;;;;;;;8.65;1.70;;;;;;;35.28;33.78;100322.31;4994105;28;20109;-88
2022/08/18 02:34:48;;;;;;;4.15;1.20;;;;;;;35.19;34.11;100324.78;4980313;28;20073;-83
2022/08/18 02:37:16;;;;;;;5.30;1.75;;;;;;;35.09;33.85;100331.00;4985640;28;20054;-78
2022/08/18 02:39:45;;;;;;;11.63;2.30;;;;;;;35.00;33.77;100338.84;4980920;28;20054;-81
2022/08/18 02:42:14;;;;;;;6.05;2.67;;;;;;;34.92;33.48;100343.13;4983852;28;20050;-82
2022/08/18 02:44:44;;;;;;;9.13;2.28;;;;;;;34.83;34.57;100350.91;4988592;28;20045;-81
2022/08/18 02:47:12;;;;;;;5.15;1.88;;;;;;;34.75;34.94;100364.13;4987323;28;20117;-80
2022/08/18 02:49:41;;;;;;;13.27;2.83;;;;;;;34.62;34.92;100372.25;4982828;28;20082;-81
2022/08/18 02:52:10;;;;;;;6.28;2.25;;;;;;;34.54;34.67;100382.72;4988059;28;20049;-83
2022/08/18 02:54:39;;;;;;;10.25;2.10;;;;;;;34.48;34.88;100387.72;4982421;28;20146;-81
2022/08/18 02:57:09;;;;;;;7.03;1.77;;;;;;;34.40;34.38;100389.13;4983864;28;20162;-81
2022/08/18 02:59:39;;;;;;;6.35;2.05;;;;;;;34.36;34.85;100387.69;4986431;28;20571;-83
2022/08/18 03:02:10;;;;;;;3.15;1.92;;;;;;;34.29;35.78;100386.41;4984544;28;20054;-82
2022/08/18 03:04:39;;;;;;;7.22;1.80;;;;;;;34.19;36.87;100388.09;4987028;28;20054;-81
2022/08/18 03:07:11;;;;;;;10.82;2.05;;;;;;;34.08;37.18;100396.06;4983585;28;20069;-75
2022/08/18 03:09:38;;;;;;;;;;;;;;;33.90;37.83;100406.34;4983106;28;20105;-78
2022/08/18 03:12:08;;;;;;;5.20;2.10;;;;;;;33.70;38.35;100413.19;4985572;28;19921;-80
2022/08/18 03:14:38;;;;;;;4.03;1.88;;;;;;;33.55;39.15;100418.66;4987932;28;20495;-77
2022/08/18 03:17:10;;;;;;;6.10;1.83;;;;;;;33.42;39.63;100420.50;4988580;28;20060;-76
2022/08/18 03:19:38;;;;;;;5.75;2.00;;;;;;;33.30;38.30;100422.22;4988859;28;20097;-75
2022/08/18 03:22:09;;;;;;;8.70;1.98;;;;;;;33.20;38.77;100425.69;4988325;28;20118;-75
2022/08/18 03:24:37;;;;;;;12.10;2.10;;;;;;;33.10;38.58;100434.38;4985170;28;20121;-75
2022/08/18 03:27:07;;;;;;;4.72;2.28;;;;;;;33.00;39.20;100429.72;4983947;28;20113;-77
2022/08/18 03:29:36;;;;;;;7.97;2.10;;;;;;;32.91;39.64;100431.22;4982097;28;20385;-77
2022/08/18 03:32:07;;;;;;;7.20;2.33;;;;;;;32.81;39.93;100430.16;4985311;28;20539;-76
2022/08/18 03:34:37;;;;;;;7.90;2.00;;;;;;;32.68;39.98;100430.97;4986510;28;20438;-76
2022/08/18 03:37:06;;;;;;;8.50;2.20;;;;;;;32.60;39.77;100433.34;4982032;28;20061;-75
2022/08/18 03:39:34;;;;;;;6.75;1.80;;;;;;;32.51;40.34;100439.31;4983085;28;20057;-75
2022/08/18 03:42:03;;;;;;;2.72;1.80;;;;;;;32.42;40.76;100440.75;4984080;28;20078;-76
2022/08/18 03:44:35;;;;;;;11.65;1.88;;;;;;;32.32;41.27;100445.00;4982825;28;20039;-77
2022/08/18 03:47:04;;;;;;;11.10;2.25;;;;;;;32.25;41.04;100457.06;4981978;28;20054;-76
2022/08/18 03:49:33;;;;;;;5.68;2.08;;;;;;;32.17;41.93;100468.31;4983968;28;20487;-78
2022/08/18 03:52:04;;;;;;;5.68;2.05;;;;;;;32.09;42.42;100460.78;4985713;28;20555;-78
2022/08/18 03:54:32;;;;;;;8.40;2.17;;;;;;;32.00;43.23;100471.19;4985551;28;20055;-76
2022/08/18 03:57:01;;;;;;;4.13;1.83;;;;;;;31.88;43.10;100471.00;4989169;28;20046;-74
2022/08/18 03:59:31;;;;;;;4.88;2.13;;;;;;;31.78;43.34;100466.34;4983031;28;20050;-75
2022/08/18 04:02:00;;;;;;;5.43;2.00;;;;;;;31.70;43.19;100465.03;4988628;28;20049;-75
2022/08/18 04:04:29;;;;;;;9.25;2.20;;;;;;;31.63;44.16;100468.19;4984515;28;20179;-72
2022/08/18 04:07:03;;;;;;;9.00;1.77;;;;;;;31.56;43.90;100474.88;4983885;28;20116;-73
2022/08/18 04:09:35;;;;;;;17.23;2.30;;;;;;;31.46;44.69;100475.44;4982647;28;20074;-74
2022/08/18 04:12:11;;;;;;;12.52;2.38;;;;;;;31.41;44.54;100480.22;4982578;28;20058;-73
2022/08/18 04:14:42;;;;;;;8.35;2.47;;;;;;;31.34;45.57;100484.22;4984687;28;20508;-73
2022/08/18 04:17:11;;;;;;;12.93;2.33;;;;;;;31.27;45.51;100483.72;4984270;28;20152;-75
2022/08/18 04:19:39;;;;;;;9.73;2.22;;;;;;;31.20;45.13;100487.72;4983616;28;20055;-76
2022/08/18 04:22:08;;;;;;;7.47;2.63;;;;;;;31.14;44.46;100487.25;4980658;28;20693;-75
2022/08/18 04:24:38;;;;;;;8.55;2.33;;;;;;;31.08;45.27;100500.03;4985460;28;20539;-76
2022/08/18 04:27:09;;;;;;;8.68;2.20;;;;;;;31.01;45.40;100493.31;4980370;28;20618;-78
2022/08/18 04:29:44;;;;;;;4.53;2.15;;;;;;;30.96;46.08;100490.06;4994684;28;20061;-75
2022/08/18 04:32:13;;;;;;;9.77;2.10;;;;;;;30.88;45.53;100484.34;4980847;28;20050;-76
2022/08/18 04:34:41;;;;;;;7.80;2.10;;;;;;;30.83;45.44;100479.22;4982785;28;20058;-76
2022/08/18 04:37:10;;;;;;;6.72;2.35;;;;;;;30.75;45.47;100480.63;4984145;28;21238;-75
2022/08/18 04:39:40;;;;;;;3.33;2.35;;;;;;;30.66;45.71;100477.53;4976564;28;20047;-77
2022/08/18 04:42:09;;;;;;;4.82;2.28;;;;;;;30.62;45.34;100484.00;4982782;28;20050;-75
2022/08/18 04:44:38;;;;;;;6.18;2.22;;;;;;;30.58;44.83;100478.94;4980121;28;20560;-73
2022/08/18 04:47:08;;;;;;;8.40;2.30;;;;;;;30.54;46.13;100480.94;4989471;28;20046;-75
2022/08/18 04:49:37;;;;;;;8.98;2.30;;;;;;;30.47;46.20;100477.75;4981855;28;20125;-76
2022/08/18 04:54:53;;;;;;;7.70;2.78;;;;;;;30.39;46.37;100477.34;4974847;28;20217;-73
2022/08/18 04:57:24;;;;;;;9.20;2.85;;;;;;;30.36;46.23;100468.66;4985545;28;20049;-73
2022/08/18 04:59:53;;;;;;;4.82;2.08;;;;;;;30.30;46.42;100461.84;4984005;28;20061;-75
2022/08/18 05:02:23;;;;;;;4.88;2.55;;;;;;;30.23;46.55;100453.31;4984752;28;20481;-77
2022/08/18 05:04:51;;;;;;;5.28;2.72;;;;;;;30.18;46.76;100450.03;4987262;28;20051;-77
2022/08/18 05:07:23;;;;;;;3.50;2.17;;;;;;;30.13;46.64;100449.47;4986384;28;20108;-77
2022/08/18 05:09:53;;;;;;;7.75;2.60;;;;;;;30.08;47.54;100448.88;4986986;28;20072;-76
2022/08/18 05:12:22;;;;;;;4.80;2.23;;;;;;;30.03;47.89;100445.56;4987584;28;20140;-76
2022/08/18 05:14:52;;;;;;;6.65;2.65;;;;;;;29.99;47.36;100439.56;4978986;28;20651;-76
2022/08/18 05:17:21;;;;;;;4.07;2.65;;;;;;;29.94;47.95;100444.31;4969429;28;20108;-77
2022/08/18 05:19:49;;;;;;;5.07;2.50;;;;;;;29.89;48.63;100448.16;4967275;28;20089;-77
2022/08/18 05:22:19;;;;;;;8.07;2.47;;;;;;;29.83;48.45;100450.25;4968574;28;20053;-75
2022/08/18 05:24:48;;;;;;;8.38;2.60;;;;;;;29.75;49.12;100444.47;4976157;28;20081;-78
2022/08/18 05:27:18;;;;;;;7.00;2.50;;;;;;;29.70;50.15;100443.00;4984095;28;20059;-77
2022/08/18 05:29:47;;;;;;;10.82;2.75;;;;;;;29.64;49.75;100450.38;4971798;28;20055;-76
2022/08/18 05:32:16;;;;;;;3.88;2.15;;;;;;;29.60;49.57;100455.97;4968694;28;20082;-79
2022/08/18 05:34:47;;;;;;;6.70;2.40;;;;;;;29.55;50.37;100455.31;4966684;28;20047;-79
2022/08/18 05:37:31;;;;;;;6.30;2.47;;;;;;;29.47;50.20;100452.22;4966175;28;20043;-77
2022/08/18 05:40:03;;;;;;;5.15;2.47;;;;;;;29.41;50.51;100462.28;4965988;28;20046;-76
2022/08/18 05:42:39;;;;;;;5.20;2.75;;;;;;;29.36;50.13;100456.31;4960188;28;20074;-76
2022/08/18 05:45:12;;;;;;;7.07;2.63;;;;;;;29.31;49.78;100455.72;4972495;28;20074;-76
2022/08/18 05:47:40;;;;;;;6.20;2.80;;;;;;;29.27;50.17;100456.81;4959222;28;20413;-75
2022/08/18 05:50:11;;;;;;;8.20;2.97;;;;;;;29.24;50.20;100456.97;4972238;28;20090;-76
2022/08/18 05:52:44;;;;;;;5.57;2.25;;;;;;;29.21;51.26;100458.00;4967089;28;20058;-75
2022/08/18 05:58:11;;;;;;;5.82;2.28;;;;;;;29.10;51.04;100464.84;4962703;28;20112;-75
2022/08/18 06:00:40;;;;;;;7.50;3.05;;;;;;;29.00;51.06;100454.66;4970351;28;20954;-75
2022/08/18 06:03:16;;;;;;;4.13;2.88;;;;;;;28.97;51.10;100461.91;4965437;28;20080;-75
2022/08/18 06:05:56;;;;;;;11.32;2.88;;;;;;;28.90;50.81;100458.72;4970303;28;20047;-76
2022/08/18 06:08:30;;;;;;;9.35;3.38;;;;;;;28.87;50.20;100450.03;4968847;28;20733;-76
2022/08/18 06:10:59;;;;;;;6.90;2.80;;;;;;;28.82;50.93;100455.59;4977380;28;20492;-76
2022/08/18 06:13:39;;;;;;;10.38;2.60;;;;;;;28.76;50.20;100451.44;4968652;28;20047;-75
2022/08/18 06:16:15;;;;;;;5.65;3.08;;;;;;;28.74;51.08;100455.13;4968720;28;20073;-76
2022/08/18 06:18:50;;;;;;;10.05;3.35;;;;;;;28.71;51.25;100452.63;4963790;28;20047;-76
2022/08/18 06:21:32;;;;;;;10.88;2.65;;;;;;;28.69;51.59;100446.50;4967686;28;20051;-76
2022/08/18 06:24:11;;;;;;;5.00;2.80;;;;;;;28.63;51.15;100444.16;4964886;28;20157;-76
2022/08/18 06:26:49;;;;;;;8.38;2.70;;;;;;;28.57;50.21;100446.19;4965921;28;20049;-76
2022/08/18 06:29:33;;;;;;;6.93;2.85;;;;;;;28.52;52.10;100447.34;4962949;28;20488;-75
2022/08/18 06:32:16;;;;;;;7.45;3.03;;;;;;;28.47;52.19;100446.72;4964790;28;20506;-76
2022/08/18 06:35:04;;;;;;;6.65;2.72;;;;;;;28.42;52.12;100457.56;4964997;28;20197;-78
2022/08/18 06:38:37;;;;;;;9.13;3.03;;;;;;;28.39;52.42;100457.72;4959769;28;20043;-78
2022/08/18 06:40:27;;;;;;;3.65;2.78;;;;;;;28.36;52.45;100457.88;4969298;28;20057;-77
2022/08/18 06:42:55;;;;;;;7.93;3.03;;;;;;;28.31;54.17;100466.09;4962591;28;20501;-75
2022/08/18 06:45:33;;;;;;;7.55;2.92;;;;;;;28.18;54.24;100465.81;4962943;28;20055;-75
2022/08/18 06:48:07;;;;;;;6.53;2.83;;;;;;;28.12;54.63;100471.41;4963059;28;20519;-77
2022/08/18 06:50:42;;;;;;;7.55;2.63;;;;;;;28.04;56.40;100473.59;4968570;28;21363;-76
2022/08/18 06:53:11;;;;;;;6.82;2.60;;;;;;;27.90;56.14;100476.03;4971263;28;20047;-74
2022/08/18 06:55:42;;;;;;;6.18;2.47;;;;;;;27.83;55.85;100474.56;4968501;28;20051;-75
2022/08/18 06:58:26;;;;;;;6.60;2.92;;;;;;;27.73;55.68;100467.03;4968592;28;20055;-75
2022/08/18 07:01:01;;;;;;;9.10;2.58;;;;;;;27.71;55.56;100476.00;4960194;28;20642;-78
2022/08/18 07:03:46;;;;;;;5.55;2.60;;;;;;;27.73;56.08;100476.78;4967838;28;20054;-75
2022/08/18 07:06:31;;;;;;;7.97;2.70;;;;;;;27.75;56.18;100489.09;4964903;28;20109;-75
2022/08/18 07:09:22;;;;;;;6.30;2.33;;;;;;;27.76;55.69;100504.13;4959511;28;20050;-75
2022/08/18 07:12:05;;;;;;;9.18;2.50;;;;;;;27.76;54.11;100506.78;4965553;28;20077;-77
2022/08/18 07:14:43;;;;;;;5.13;2.08;;;;;;;27.72;57.38;100523.78;4972004;28;20507;-76
2022/08/18 07:17:21;;;;;;;6.95;2.88;;;;;;;27.65;56.85;100527.66;4984696;28;20059;-76
2022/08/18 07:20:00;;;;;;;12.82;2.60;;;;;;;27.52;56.17;100523.81;4984221;28;20069;-77
2022/08/18 07:22:29;;;;;;;11.75;3.25;;;;;;;27.51;54.96;100538.03;4980277;28;20474;-75
2022/08/18 07:25:01;;;;;;;7.38;2.60;;;;;;;27.51;56.50;100538.03;4987161;28;20440;-76
2022/08/18 07:27:47;;;;;;;11.25;2.85;;;;;;;27.54;55.42;100544.09;4988336;28;20050;-78
2022/08/18 07:30:29;;;;;;;8.27;2.72;;;;;;;27.55;57.65;100544.94;4987158;28;20047;-78
2022/08/18 07:33:11;;;;;;;10.57;2.67;;;;;;;27.54;55.63;100549.41;4978903;28;20046;-78
2022/08/18 07:35:45;;;;;;;8.00;2.42;;;;;;;27.53;56.68;100546.78;4986753;28;20046;-75
2022/08/18 07:38:20;;;;;;;7.70;2.78;;;;;;;27.51;57.16;100559.28;4984592;28;20057;-77
2022/08/18 07:40:55;;;;;;;3.85;2.50;;;;;;;27.41;56.12;100565.94;4984163;28;20662;-76
2022/08/18 07:43:29;;;;;;;7.22;2.60;;;;;;;27.35;57.92;100570.59;4981337;28;20042;-76
2022/08/18 07:46:08;;;;;;;4.78;2.22;;;;;;;27.33;57.28;100558.31;4993523;28;20050;-73
2022/08/18 07:48:38;;;;;;;6.35;2.30;;;;;;;27.31;58.33;100547.75;4994459;28;20069;-78
2022/08/18 07:51:15;;;;;;;6.63;2.58;;;;;;;27.26;57.46;100539.13;4983586;28;20054;-75
2022/08/18 07:53:53;;;;;;;5.78;2.38;;;;;;;27.23;57.67;100530.41;4984840;28;20038;-76
2022/08/18 07:56:32;;;;;;;5.50;2.28;;;;;;;27.24;57.41;100542.78;4980470;28;20050;-75
2022/08/18 07:59:05;;;;;;;9.50;2.40;;;;;;;27.25;57.21;100566.59;4986511;28;20054;-76
2022/08/18 08:01:39;;;;;;;15.52;2.53;;;;;;;27.24;56.77;100583.47;4984060;28;20471;-76
2022/08/18 08:04:15;;;;;;;8.35;2.58;;;;;;;27.20;56.50;100576.56;4984822;28;20059;-76
2022/08/18 08:06:49;;;;;;;7.38;2.65;;;;;;;27.17;56.58;100566.91;4989579;28;20108;-76
2022/08/18 08:09:24;;;;;;;6.40;2.83;;;;;;;27.13;56.50;100567.09;4986020;28;20086;-76
2022/08/18 08:11:58;;;;;;;4.80;2.53;;;;;;;27.11;56.71;100576.94;4985559;28;20784;-75
2022/08/18 08:14:40;;;;;;;7.38;3.22;;;;;;;27.03;57.72;100587.88;4987087;28;20054;-76
2022/08/18 08:17:21;;;;;;;7.63;3.03;;;;;;;27.03;58.69;100593.19;4988605;28;20057;-79
2022/08/18 08:20:11;;;;;;;7.22;2.97;;;;;;;27.00;59.02;100579.16;4989589;28;20081;-76
2022/08/18 08:22:44;;;;;;;6.25;2.83;;;;;;;26.96;59.11;100567.78;4988014;28;20058;-78
2022/08/18 08:25:20;;;;;;;13.10;2.97;;;;;;;26.92;59.97;100576.84;4991948;28;20045;-76
2022/08/18 08:28:06;;;;;;;9.35;2.80;;;;;;;26.81;60.34;100565.78;4993188;28;20115;-75
2022/08/18 08:30:42;;;;;;;9.35;2.72;;;;;;;26.75;60.59;100572.19;4986367;28;20105;-76
2022/08/18 08:33:20;;;;;;;9.38;2.70;;;;;;;26.75;60.51;100572.19;4988909;28;20146;-74
2022/08/18 08:35:53;;;;;;;6.10;2.80;;;;;;;26.73;60.30;100558.13;4989636;28;20054;-74
2022/08/18 08:38:28;;;;;;;14.95;3.38;;;;;;;26.73;60.18;100555.47;4984584;28;20547;-74
2022/08/18 08:41:02;;;;;;;8.82;2.90;;;;;;;26.70;60.48;100540.53;4985128;28;20058;-73
2022/08/18 08:43:35;;;;;;;6.90;2.55;;;;;;;26.65;60.50;100531.91;4990488;28;20050;-74
2022/08/18 08:46:10;;;;;;;5.63;2.22;;;;;;;26.61;60.64;100543.56;4990440;28;20045;-74
2022/08/18 08:48:47;;;;;;;6.53;3.08;;;;;;;26.46;62.71;100550.34;4988593;28;20101;-77
2022/08/18 08:51:34;;;;;;;11.80;3.33;;;;;;;26.22;63.06;100549.50;4982258;28;20050;-75
2022/08/18 08:54:11;;;;;;;8.88;3.10;;;;;;;26.12;63.12;100556.94;4985767;28;20042;-76
2022/08/18 08:56:46;;;;;;;13.35;3.13;;;;;;;26.07;63.05;100550.09;4991864;28;20109;-77
2022/08/18 08:59:17;;;;;;;5.90;2.60;;;;;;;26.03;63.03;100554.66;4988357;28;20078;-76
2022/08/18 09:01:56;;;;;;;9.88;3.13;;;;;;;25.97;63.42;100570.78;4991013;28;20046;-75
2022/08/18 09:04:44;;;;;;;5.82;2.60;;;;;;;25.90;63.73;100563.97;4982264;28;20086;-75
2022/08/18 09:07:31;;;;;;;6.55;2.70;;;;;;;25.85;63.12;100542.06;4991889;28;20496;-75
2022/08/18 09:10:19;;;;;;;5.50;2.72;;;;;;;25.82;63.00;100540.38;4990218;28;20050;-75
2022/08/18 09:13:07;;;;;;;6.95;2.70;;;;;;;25.82;63.30;100547.47;4989903;28;20115;-76
2022/08/18 09:16:07;;;;;;;6.20;2.67;;;;;;;25.78;63.36;100538.75;4989120;28;20046;-74
2022/08/18 09:18:48;;;;;;;8.52;2.72;;;;;;;25.81;63.27;100543.09;4986571;28;20104;-76
2022/08/18 09:21:31;;;;;;;9.25;2.60;;;;;;;25.77;63.50;100520.25;4986092;28;20096;-74
2022/08/18 09:24:14;;;;;;;6.25;2.80;;;;;;;25.74;63.55;100523.88;4987581;28;20049;-74
2022/08/18 09:26:49;;;;;;;6.68;2.70;;;;;;;25.70;63.85;100525.81;4987574;28;20122;-74
2022/08/18 09:29:23;;;;;;;8.00;3.10;;;;;;;25.66;64.12;100528.63;4986518;28;20058;-75
2022/08/18 09:32:49;;;;;;;4.97;2.50;;;;;;;25.59;63.91;100521.84;4980526;28;20157;-73
2022/08/18 09:35:44;;;;;;;9.90;2.60;;;;;;;25.54;63.35;100531.69;4968243;28;20049;-75
2022/08/18 09:44:10;;;;;;;7.63;2.47;;;;;;;25.33;65.40;100542.13;4992903;28;20124;-74
2022/08/18 09:46:57;;;;;;;8.98;2.72;;;;;;;25.29;65.36;100540.53;4989899;28;20153;-75
2022/08/18 09:49:45;;;;;;;6.00;2.72;;;;;;;25.27;64.63;100543.25;4995119;28;20492;-77
2022/08/18 09:52:56;;;;;;;3.95;2.92;;;;;;;25.26;65.52;100552.09;4982230;28;20049;-76
2022/08/18 09:55:58;;;;;;;8.23;2.88;;;;;;;25.22;65.12;100563.72;4984778;28;20046;-79
2022/08/18 09:58:51;;;;;;;8.80;2.90;;;;;;;25.23;65.54;100561.94;4988138;28;20046;-73
2022/08/18 10:01:38;;;;;;;6.78;2.83;;;;;;;25.21;65.19;100559.31;4985225;28;20046;-73
2022/08/18 10:04:34;;;;;;;7.10;2.83;;;;;;;25.18;65.04;100556.78;4983817;28;20050;-72
2022/08/18 10:07:19;;;;;;;8.07;2.60;;;;;;;25.14;64.62;100555.13;4951295;28;20058;-73
2022/08/18 10:10:09;;;;;;;4.72;2.65;;;;;;;25.12;64.19;100564.03;4991211;28;20057;-75
2022/08/18 10:12:52;;;;;;;5.38;2.53;;;;;;;25.07;64.81;100556.25;4989009;28;20579;-73
2022/08/18 10:15:57;;;;;;;6.40;2.60;;;;;;;25.04;64.95;100551.06;4981248;28;20046;-76
2022/08/18 10:18:49;;;;;;;6.00;2.78;;;;;;;24.96;66.49;100556.59;4968120;28;20047;-75
2022/08/18 10:21:20;;;;;;;6.18;2.65;;;;;;;24.83;68.11;100553.53;4969451;28;20046;-75
2022/08/18 10:23:55;;;;;;;5.95;3.13;;;;;;;24.77;68.39;100561.66;4968459;28;20155;-74
2022/08/18 10:27:09;;;;;;;6.93;2.40;;;;;;;24.69;68.21;100558.38;4967713;28;20050;-72
2022/08/18 10:29:53;;;;;;;6.15;2.45;;;;;;;24.64;68.14;100557.66;4969905;28;20528;-72
2022/08/18 10:32:40;;;;;;;10.93;3.28;;;;;;;24.58;68.31;100573.72;4957350;28;20050;-75
2022/08/18 10:35:51;;;;;;;6.55;3.03;;;;;;;24.46;67.72;100580.22;4958431;28;20047;-75
2022/08/18 10:38:38;;;;;;;7.63;2.67;;;;;;;24.36;68.51;100571.72;4956587;28;20047;-73
2022/08/18 10:41:20;;;;;;;7.22;3.10;;;;;;;24.35;67.94;100579.69;4956162;28;20051;-74
2022/08/18 10:43:53;;;;;;;11.45;3.13;;;;;;;24.34;68.29;100572.69;4971713;28;20142;-75
2022/08/18 10:46:24;;;;;;;9.27;3.28;;;;;;;24.33;68.30;100573.59;4962412;28;20069;-74
2022/08/18 10:49:04;;;;;;;6.68;2.67;;;;;;;24.35;68.43;100577.94;4967193;28;20046;-76
2022/08/18 10:51:57;;;;;;;4.22;2.70;;;;;;;24.38;67.95;100569.03;4968568;28;20424;-74
2022/08/18 10:54:37;;;;;;;7.93;2.90;;;;;;;24.38;67.92;100567.25;4961593;28;20050;-73
2022/08/18 10:57:15;;;;;;;8.23;2.90;;;;;;;24.35;67.45;100562.06;4974051;28;20046;-73
2022/08/18 10:59:54;;;;;;;5.20;2.58;;;;;;;24.34;67.43;100564.75;4975876;28;20050;-73
2022/08/18 11:02:44;;;;;;;5.15;2.78;;;;;;;24.31;67.74;100571.00;4969198;28;20509;-74
2022/08/18 11:05:18;;;;;;;9.82;2.75;;;;;;;24.27;68.50;100569.34;4966044;28;20042;-74
2022/08/18 11:07:50;;;;;;;5.95;2.70;;;;;;;24.24;68.49;100565.03;4959217;28;20043;-73
2022/08/18 11:10:21;;;;;;;10.07;2.67;;;;;;;24.17;68.33;100560.84;4955955;28;20047;-73
2022/08/18 11:13:05;;;;;;;6.47;3.03;;;;;;;24.12;68.08;100560.13;4967872;28;20062;-73
2022/08/18 11:15:54;;;;;;;5.63;2.90;;;;;;;24.08;68.59;100574.34;4990120;28;20061;-71
2022/08/18 11:18:35;;;;;;;8.48;3.50;;;;;;;24.03;69.18;100582.41;4992039;28;20799;-73
2022/08/18 11:21:31;;;;;;;5.88;2.88;;;;;;;23.99;69.25;100575.47;4988559;28;20050;-71
2022/08/18 11:24:14;;;;;;;11.98;3.15;;;;;;;23.95;69.56;100578.22;4978755;28;20206;-72
2022/08/18 11:26:43;;;;;;;;;;;;;;;23.93;69.71;100580.06;4987393;28;20563;-72
2022/08/18 11:29:32;;;;;;;6.18;2.72;;;;;;;23.90;69.99;100574.88;4980267;28;19972;-72
2022/08/18 11:32:06;;;;;;;4.35;2.60;;;;;;;23.84;70.49;100575.88;4985000;28;20047;-72
2022/08/18 11:34:39;;;;;;;3.58;2.53;;;;;;;23.80;70.31;100574.25;4982729;28;20046;-71
2022/08/18 11:37:22;;;;;;;7.32;2.60;;;;;;;23.76;70.41;100568.19;4987938;28;20410;-73
2022/08/18 11:39:53;;;;;;;4.93;2.60;;;;;;;23.72;70.97;100581.50;4992996;28;20130;-71
2022/08/18 11:42:28;;;;;;;8.85;2.92;;;;;;;23.69;71.03;100578.94;4992652;28;20046;-72
2022/08/18 11:45:05;;;;;;;4.25;2.70;;;;;;;23.66;71.11;100579.00;4983629;28;20046;-72
2022/08/18 11:47:34;;;;;;;5.47;2.85;;;;;;;23.62;71.00;100579.09;4990286;28;20051;-74
2022/08/18 11:50:11;;;;;;;6.72;3.00;;;;;;;23.53;70.88;100579.34;4984529;28;20476;-72
2022/08/18 11:52:54;;;;;;;8.05;3.05;;;;;;;23.45;72.07;100583.97;4988409;28;20649;-74
2022/08/18 11:55:32;;;;;;;6.93;2.90;;;;;;;23.45;72.80;100580.47;4988772;28;20043;-71
2022/08/18 11:58:01;;;;;;;6.10;2.95;;;;;;;23.47;72.32;100592.72;4992033;28;20057;-74
2022/08/18 12:00:55;;;;;;;9.27;2.60;;;;;;;23.49;73.12;100590.91;5003590;28;20049;-73
2022/08/18 12:03:38;;;;;;;6.53;2.65;;;;;;;23.50;72.69;100590.00;4986314;28;20112;-71
2022/08/18 12:06:18;;;;;;;6.53;2.95;;;;;;;23.49;72.22;100596.19;4990547;28;20050;-71
2022/08/18 12:08:55;;;;;;;8.80;3.05;;;;;;;23.46;71.93;100588.34;4987515;28;20042;-71
2022/08/18 12:11:26;;;;;;;8.07;3.08;;;;;;;23.45;72.54;100589.25;4996864;28;20633;-71
2022/08/18 12:14:04;;;;;;;7.13;2.92;;;;;;;23.42;72.48;100594.63;4987502;28;20511;-72
2022/08/18 12:16:36;;;;;;;7.05;3.08;;;;;;;23.39;73.23;100595.56;4989378;28;20053;-73
2022/08/18 12:19:05;;;;;;;6.25;2.88;;;;;;;23.29;73.71;100609.03;4985588;28;20488;-73